Time;durP1;ratioP1;P1;durP2;ratioP2;P2;SDS_P1;SDS_P2;PMS_P1;PMS_P2;Temp;Humidity;BMP_temperature;BMP_pressure;BME280_temperature;BME280_humidity;BME280_pressure;Samples;Min_cycle;Max_cycle;Signal;HPM_P1;HPM_P2
2022/12/12 00:02:16;;;;;;;62.25;32.22;;;;;;;0.73;63.90;99321.38;10429771;28;20505;-61
2022/12/12 00:07:17;;;;;;;62.35;31.67;;;;;;;0.48;64.01;99321.25;10431628;28;20578;-63
2022/12/12 00:12:19;;;;;;;58.70;30.60;;;;;;;0.38;64.49;99319.84;10430395;28;20057;-61
2022/12/12 00:17:21;;;;;;;62.38;30.65;;;;;;;0.47;64.28;99321.31;10427501;28;20064;-61
2022/12/12 00:22:22;;;;;;;62.35;31.42;;;;;;;0.44;64.08;99326.56;10425114;28;20056;-61
2022/12/12 00:27:24;;;;;;;64.00;33.08;;;;;;;0.19;64.76;99331.53;10426144;28;20499;-62
2022/12/12 00:32:26;;;;;;;65.15;32.15;;;;;;;0.07;65.09;99329.31;10427361;28;20056;-62
2022/12/12 00:37:28;;;;;;;69.40;33.00;;;;;;;0.03;65.18;99339.69;10430010;28;20049;-61
2022/12/12 00:42:29;;;;;;;72.95;32.65;;;;;;;0.01;65.26;99350.03;10440826;28;20045;-61
2022/12/12 00:47:31;;;;;;;69.75;33.53;;;;;;;0.07;65.23;99354.16;10426032;28;20051;-61
2022/12/12 00:52:32;;;;;;;67.28;32.42;;;;;;;0.19;65.11;99353.81;10424944;28;20052;-61
2022/12/12 00:57:34;;;;;;;65.80;31.40;;;;;;;0.39;64.79;99352.41;10425263;28;20600;-60
2022/12/12 01:02:36;;;;;;;58.83;30.08;;;;;;;0.52;64.63;99364.00;10424910;28;20060;-60
2022/12/12 01:07:38;;;;;;;62.15;31.10;;;;;;;0.54;64.36;99356.28;10427108;28;20107;-61
2022/12/12 01:12:39;;;;;;;56.70;30.23;;;;;;;0.60;64.05;99360.41;10433394;28;20045;-61
2022/12/12 01:17:41;;;;;;;64.78;32.28;;;;;;;0.47;64.11;99357.31;10432789;28;20421;-60
2022/12/12 01:22:42;;;;;;;63.40;31.38;;;;;;;0.38;64.49;99365.31;10470869;28;20048;-60
2022/12/12 01:27:45;;;;;;;65.72;32.42;;;;;;;0.56;64.54;99359.66;10433587;28;20414;-61
2022/12/12 01:32:47;;;;;;;62.28;30.67;;;;;;;0.65;64.47;99361.13;10431253;28;20049;-61
2022/12/12 01:37:49;;;;;;;66.70;32.78;;;;;;;0.60;64.47;99360.41;10435638;28;20049;-61
2022/12/12 01:42:51;;;;;;;68.43;32.60;;;;;;;0.56;64.51;99351.94;10447733;28;20060;-61
2022/12/12 01:47:53;;;;;;;73.35;32.08;;;;;;;0.60;64.72;99355.25;10432126;28;20045;-61
2022/12/12 01:52:54;;;;;;;66.90;32.28;;;;;;;0.58;64.62;99342.44;10433572;28;20056;-61
2022/12/12 01:57:56;;;;;;;61.90;30.27;;;;;;;0.33;64.70;99344.00;10431576;28;20072;-61
2022/12/12 02:02:58;;;;;;;66.30;32.50;;;;;;;0.28;65.18;99354.41;10430615;28;20191;-60
2022/12/12 02:08:02;;;;;;;68.22;33.25;;;;;;;0.34;65.36;99348.28;10431194;28;20044;-61
2022/12/12 02:13:13;;;;;;;66.88;32.22;;;;;;;0.13;65.48;99359.13;10430907;28;20052;-62
2022/12/12 02:18:20;;;;;;;67.35;32.45;;;;;;;-0.07;65.91;99364.81;10430602;28;20053;-61
2022/12/12 02:23:50;;;;;;;64.72;32.35;;;;;;;-0.01;66.57;99369.78;10430077;28;20583;-61
2022/12/12 02:29:03;;;;;;;60.53;30.20;;;;;;;0.22;65.77;99374.34;10429791;28;20067;-61
2022/12/12 02:34:38;;;;;;;59.78;30.65;;;;;;;0.23;65.62;99371.72;10430700;28;20045;-61
2022/12/12 02:40:14;;;;;;;55.65;28.83;;;;;;;0.29;65.43;99380.97;10431539;28;20053;-61
2022/12/12 02:45:22;;;;;;;55.00;27.08;;;;;;;0.38;65.28;99375.59;10417358;28;20929;-61
2022/12/12 02:50:27;;;;;;;49.83;26.98;;;;;;;0.37;65.17;99377.31;10427818;28;20398;-62
2022/12/12 02:55:28;;;;;;;57.50;28.65;;;;;;;0.37;65.29;99373.91;10428882;28;20111;-62
2022/12/12 03:01:09;;;;;;;51.33;26.10;;;;;;;0.39;65.39;99377.28;10429463;28;20095;-61
2022/12/12 03:12:13;;;;;;;50.83;26.45;;;;;;;0.54;65.06;99382.81;10436401;28;20060;-60
2022/12/12 03:17:25;;;;;;;42.25;23.40;;;;;;;0.60;65.02;99391.28;10437414;28;20051;-61
2022/12/12 03:22:48;;;;;;;49.05;24.70;;;;;;;0.66;64.88;99376.50;10462622;28;20064;-61
2022/12/12 03:28:07;;;;;;;46.58;24.35;;;;;;;0.63;64.94;99366.28;10445552;28;20560;-61
2022/12/12 03:33:24;;;;;;;54.15;26.17;;;;;;;0.49;64.94;99373.56;10446568;28;20053;-61
2022/12/12 03:38:34;;;;;;;47.42;25.42;;;;;;;0.41;65.23;99380.66;10435942;28;20131;-61
2022/12/12 03:43:45;;;;;;;45.17;24.25;;;;;;;0.49;65.14;99379.56;10436160;28;20060;-61
2022/12/12 03:48:59;;;;;;;43.47;22.08;;;;;;;0.53;65.12;99382.88;10436618;28;20052;-61
2022/12/12 03:54:29;;;;;;;39.92;21.25;;;;;;;0.59;64.89;99385.28;10446676;28;20052;-60
2022/12/12 03:59:41;;;;;;;39.28;20.70;;;;;;;0.54;64.79;99379.44;10441796;28;20056;-61
2022/12/12 04:04:47;;;;;;;39.28;20.77;;;;;;;0.46;64.97;99389.09;10431903;28;20401;-61
2022/12/12 04:15:24;;;;;;;37.17;20.77;;;;;;;0.16;65.44;99403.59;10428991;28;20055;-61
2022/12/12 04:31:35;;;;;;;42.95;21.52;;;;;;;0.33;65.16;99403.16;10437134;28;20053;-61
2022/12/12 04:36:38;;;;;;;36.75;20.98;;;;;;;0.40;64.90;99407.25;10427282;28;20052;-62
2022/12/12 04:41:44;;;;;;;40.17;21.23;;;;;;;0.23;65.24;99410.28;10428421;28;20393;-61
2022/12/12 04:46:50;;;;;;;40.08;21.25;;;;;;;0.35;65.25;99406.53;10439672;28;20501;-62
2022/12/12 04:51:59;;;;;;;39.75;21.90;;;;;;;0.37;65.09;99413.34;10442658;28;20068;-62
2022/12/12 04:57:06;;;;;;;38.75;21.05;;;;;;;0.26;65.15;99412.75;10440008;28;20710;-61
2022/12/12 05:02:28;;;;;;;39.67;21.17;;;;;;;0.13;65.57;99425.97;10446153;28;20041;-61
2022/12/12 05:07:39;;;;;;;;;;;;;;;-0.00;65.83;99419.44;10440464;28;20060;-61
2022/12/12 05:12:44;;;;;;;38.78;20.38;;;;;;;0.32;65.12;99416.91;10441774;28;19920;-60
2022/12/12 05:18:07;;;;;;;35.95;19.80;;;;;;;0.41;65.22;99422.66;10443462;28;20068;-61
2022/12/12 05:23:08;;;;;;;38.22;20.98;;;;;;;0.48;65.05;99419.00;10439705;28;20061;-61
2022/12/12 05:28:10;;;;;;;39.90;21.70;;;;;;;0.50;65.11;99422.38;10439978;28;20057;-61
2022/12/12 05:33:12;;;;;;;41.90;22.05;;;;;;;0.54;64.98;99433.47;10441492;28;20049;-61
2022/12/12 05:38:13;;;;;;;44.20;22.48;;;;;;;0.55;64.88;99429.97;10445456;28;20052;-60
2022/12/12 05:43:15;;;;;;;46.58;23.55;;;;;;;0.54;64.88;99433.47;10443939;28;20055;-61
2022/12/12 05:48:17;;;;;;;44.55;23.48;;;;;;;0.54;64.89;99431.72;10435961;28;20151;-60
2022/12/12 05:53:24;;;;;;;43.65;22.65;;;;;;;0.55;65.00;99437.69;10440730;28;20154;-61
2022/12/12 05:58:26;;;;;;;41.92;22.25;;;;;;;0.53;64.85;99424.03;10432929;28;20773;-61
2022/12/12 06:03:28;;;;;;;42.70;22.70;;;;;;;0.39;65.05;99418.44;10443979;28;20049;-61
2022/12/12 06:08:29;;;;;;;42.00;21.95;;;;;;;0.22;65.48;99438.63;10432476;28;20504;-61
2022/12/12 06:13:31;;;;;;;46.05;21.30;;;;;;;-0.14;65.96;99442.94;10431837;28;20124;-61
2022/12/12 06:18:33;;;;;;;42.00;22.77;;;;;;;-0.11;66.30;99448.03;10446726;28;20552;-62
2022/12/12 06:23:37;;;;;;;39.08;20.70;;;;;;;0.00;66.05;99448.59;10430341;28;20052;-61
2022/12/12 06:28:39;;;;;;;45.70;22.70;;;;;;;-0.13;66.02;99457.50;10440432;28;20057;-61
2022/12/12 06:33:41;;;;;;;41.53;20.95;;;;;;;-0.13;66.50;99457.50;10428871;28;20048;-62
2022/12/12 06:38:43;;;;;;;39.90;20.23;;;;;;;-0.07;66.08;99459.91;10413843;28;20049;-62
2022/12/12 06:43:45;;;;;;;37.05;21.10;;;;;;;-0.15;66.50;99459.25;10428461;28;20045;-61
2022/12/12 06:48:48;;;;;;;41.75;20.45;;;;;;;0.06;66.08;99455.28;10438672;28;20057;-62
2022/12/12 06:53:50;;;;;;;37.38;21.33;;;;;;;0.17;65.87;99472.16;10427362;28;23287;-61
2022/12/12 06:58:53;;;;;;;52.85;27.58;;;;;;;0.22;65.50;99461.75;10433799;28;20417;-61
2022/12/12 07:03:55;;;;;;;45.45;23.52;;;;;;;0.31;65.52;99459.78;10430732;28;20068;-60
2022/12/12 07:08:58;;;;;;;41.58;22.40;;;;;;;0.37;65.43;99466.50;10459174;28;20065;-61
2022/12/12 07:14:02;;;;;;;43.22;22.83;;;;;;;0.38;65.40;99465.63;10430391;28;20059;-61
2022/12/12 07:19:04;;;;;;;39.08;21.70;;;;;;;0.41;65.15;99470.66;10429955;28;20053;-66
2022/12/12 07:24:05;;;;;;;38.03;21.55;;;;;;;0.33;64.96;99488.03;10431397;28;20049;-67
2022/12/12 07:29:07;;;;;;;40.38;21.85;;;;;;;0.15;65.40;99493.63;10427713;28;20060;-67
2022/12/12 07:34:09;;;;;;;38.45;19.88;;;;;;;0.10;65.34;99500.59;10428899;28;20049;-67
2022/12/12 07:39:10;;;;;;;39.33;20.70;;;;;;;0.21;65.59;99491.78;10432834;28;20064;-67
2022/12/12 07:44:20;;;;;;;41.58;20.25;;;;;;;0.25;64.91;99505.38;10429580;28;20140;-67
2022/12/12 07:49:22;;;;;;;35.97;19.77;;;;;;;0.18;65.07;99509.00;10429736;28;20045;-67
2022/12/12 07:54:24;;;;;;;38.60;20.10;;;;;;;0.29;65.32;99515.56;10434786;28;20481;-67
2022/12/12 07:59:25;;;;;;;38.47;21.15;;;;;;;0.46;65.22;99520.28;10428903;28;20417;-67
2022/12/12 08:04:27;;;;;;;44.50;23.80;;;;;;;0.53;64.93;99525.22;10428103;28;20400;-67
2022/12/12 08:09:29;;;;;;;41.42;23.10;;;;;;;0.63;64.98;99522.44;10435511;28;20094;-67
2022/12/12 08:14:31;;;;;;;37.05;20.08;;;;;;;0.63;64.66;99530.16;10428726;28;20382;-65
2022/12/12 08:19:32;;;;;;;44.90;21.83;;;;;;;0.65;64.78;99526.63;10440225;28;20056;-68
2022/12/12 08:24:34;;;;;;;36.05;19.80;;;;;;;0.72;64.85;99535.03;10434432;28;20804;-66
2022/12/12 08:29:36;;;;;;;36.05;19.40;;;;;;;0.81;64.45;99535.63;10427600;28;20057;-68
2022/12/12 08:34:38;;;;;;;35.08;19.38;;;;;;;0.88;64.28;99531.16;10427561;28;20045;-66
2022/12/12 08:39:39;;;;;;;33.95;19.73;;;;;;;0.75;64.38;99534.97;10433484;28;20056;-67
2022/12/12 08:44:41;;;;;;;35.13;19.50;;;;;;;0.86;64.38;99538.94;10426937;28;20413;-68
2022/12/12 08:49:42;;;;;;;38.80;19.95;;;;;;;0.87;64.21;99545.75;10439476;28;20061;-67
2022/12/12 08:54:44;;;;;;;32.72;19.00;;;;;;;0.81;64.12;99551.06;10427129;28;20045;-68
2022/12/12 08:59:46;;;;;;;33.72;19.08;;;;;;;0.90;63.91;99553.41;10428466;28;20049;-67
2022/12/12 09:04:47;;;;;;;36.00;17.98;;;;;;;1.03;63.71;99556.50;10427130;28;20084;-67
2022/12/12 09:09:49;;;;;;;30.52;17.00;;;;;;;1.22;63.28;99550.81;10427125;28;20106;-67
2022/12/12 09:14:51;;;;;;;28.15;15.95;;;;;;;1.23;62.92;99561.97;10428291;28;20067;-67
2022/12/12 09:19:52;;;;;;;27.92;15.02;;;;;;;1.22;62.89;99565.41;10427286;28;20068;-67
2022/12/12 09:24:54;;;;;;;29.08;15.30;;;;;;;1.17;62.72;99568.13;10425885;28;20056;-67
2022/12/12 09:29:56;;;;;;;29.58;16.98;;;;;;;1.34;62.42;99573.63;10446465;28;20932;-67
2022/12/12 09:34:58;;;;;;;26.27;15.68;;;;;;;1.44;62.04;99578.53;10444165;28;20485;-67
2022/12/12 09:40:00;;;;;;;37.88;19.15;;;;;;;1.57;61.93;99577.28;10434857;28;20056;-67
2022/12/12 09:45:05;;;;;;;26.95;15.85;;;;;;;1.64;61.29;99578.81;10443518;28;20045;-68
2022/12/12 09:50:20;;;;;;;24.20;13.93;;;;;;;1.71;60.57;99577.72;10433210;28;20045;-67
2022/12/12 09:55:32;;;;;;;26.02;14.65;;;;;;;1.73;61.10;99575.94;10426988;28;20049;-68
2022/12/12 10:00:40;;;;;;;29.95;17.30;;;;;;;1.70;61.06;99576.91;10432252;28;20060;-67
2022/12/12 10:05:49;;;;;;;27.45;16.52;;;;;;;1.79;61.10;99571.47;10435029;28;20045;-68
2022/12/12 10:16:38;;;;;;;25.95;14.48;;;;;;;1.86;60.33;99559.22;10443593;28;20813;-68
2022/12/12 10:21:40;;;;;;;22.77;13.45;;;;;;;1.89;59.96;99561.72;10449227;28;20045;-68
2022/12/12 10:26:42;;;;;;;23.98;14.00;;;;;;;1.91;59.40;99570.25;10433017;28;20049;-68
2022/12/12 10:32:14;;;;;;;23.20;13.23;;;;;;;2.05;58.11;99575.84;10444109;28;20686;-68
2022/12/12 10:38:00;;;;;;;39.03;22.55;;;;;;;1.89;58.17;99569.47;10430821;28;20057;-68
2022/12/12 10:43:18;;;;;;;23.88;13.80;;;;;;;1.98;58.25;99576.91;10424305;28;20056;-67
2022/12/12 10:48:20;;;;;;;26.05;14.07;;;;;;;1.99;58.79;99568.28;10430200;28;20059;-67
2022/12/12 10:53:23;;;;;;;26.40;15.82;;;;;;;2.03;59.04;99569.88;10430316;28;20067;-68
2022/12/12 10:58:26;;;;;;;26.00;15.60;;;;;;;2.30;58.22;99563.84;10429586;28;20049;-68
2022/12/12 11:03:34;;;;;;;22.00;13.60;;;;;;;2.25;57.39;99558.00;10455443;28;20048;-68
2022/12/12 11:08:36;;;;;;;25.83;15.85;;;;;;;2.24;57.51;99553.72;10432381;28;20080;-68
2022/12/12 11:13:59;;;;;;;18.90;12.00;;;;;;;2.15;56.15;99547.09;10427258;28;20418;-68
2022/12/12 11:19:24;;;;;;;21.60;12.35;;;;;;;2.15;56.67;99552.25;10462244;28;20052;-68
2022/12/12 11:24:31;;;;;;;21.83;12.70;;;;;;;2.13;56.92;99554.06;10444002;28;20056;-68
2022/12/12 11:29:39;;;;;;;22.17;13.02;;;;;;;2.32;57.07;99546.56;10502050;28;21078;-68
2022/12/12 11:34:48;;;;;;;22.70;13.40;;;;;;;2.35;57.62;99549.06;10441046;28;20048;-66
2022/12/12 11:39:52;;;;;;;20.02;12.45;;;;;;;2.40;56.96;99542.00;10427933;28;20567;-68
2022/12/12 11:45:12;;;;;;;21.80;12.98;;;;;;;2.40;55.80;99539.41;10439522;28;20060;-68
2022/12/12 11:50:26;;;;;;;23.43;12.60;;;;;;;2.37;56.41;99531.78;10428055;28;20704;-68
2022/12/12 11:56:01;;;;;;;19.40;12.00;;;;;;;2.54;55.46;99537.22;10453745;28;20878;-67
2022/12/12 12:01:16;;;;;;;20.02;11.75;;;;;;;2.49;56.32;99533.97;10473163;28;20068;-68
2022/12/12 12:06:45;;;;;;;22.52;12.57;;;;;;;2.57;55.67;99526.81;10429073;28;20049;-68
2022/12/12 12:11:56;;;;;;;21.30;12.40;;;;;;;2.49;55.75;99513.31;10428410;28;20058;-68
2022/12/12 12:17:20;;;;;;;19.50;12.73;;;;;;;2.41;55.51;99514.47;10427340;28;20469;-68
2022/12/12 12:22:43;;;;;;;23.30;13.13;;;;;;;2.57;55.50;99516.50;10423885;28;20075;-68
2022/12/12 12:28:02;;;;;;;23.23;13.13;;;;;;;2.49;55.71;99518.47;10426333;28;20547;-67
2022/12/12 12:33:34;;;;;;;21.52;12.70;;;;;;;2.63;55.52;99521.44;10423969;28;20462;-67
2022/12/12 12:39:07;;;;;;;25.17;13.60;;;;;;;2.23;56.03;99519.31;10445399;28;20056;-67
2022/12/12 12:44:34;;;;;;;22.10;13.10;;;;;;;2.07;56.38;99519.91;10442260;28;20057;-67
2022/12/12 12:50:09;;;;;;;26.13;13.48;;;;;;;2.17;56.75;99510.97;10429730;28;20044;-67
2022/12/12 12:55:17;;;;;;;24.23;14.68;;;;;;;2.15;56.08;99507.59;10420290;28;20405;-67
2022/12/12 13:00:23;;;;;;;27.73;15.60;;;;;;;2.05;57.07;99494.13;10427001;28;20626;-67
2022/12/12 13:05:25;;;;;;;26.00;15.90;;;;;;;1.99;57.21;99496.09;10428480;28;20489;-67
2022/12/12 13:10:28;;;;;;;26.80;15.07;;;;;;;1.97;57.14;99497.88;10437445;28;20052;-67
2022/12/12 13:15:35;;;;;;;23.15;14.23;;;;;;;1.83;57.45;99489.69;10430668;28;20045;-67
2022/12/12 13:20:41;;;;;;;26.65;15.27;;;;;;;1.84;57.81;99492.25;10434988;28;20053;-67
2022/12/12 13:26:05;;;;;;;22.83;14.30;;;;;;;1.70;58.02;99491.00;10441591;28;20532;-67
2022/12/12 13:31:28;;;;;;;25.42;14.05;;;;;;;1.78;57.45;99491.59;10434131;28;20061;-68
2022/12/12 13:36:33;;;;;;;23.52;14.30;;;;;;;1.75;57.54;99492.53;10436320;28;20436;-67
2022/12/12 13:42:06;;;;;;;23.05;13.90;;;;;;;1.76;57.30;99489.06;10436068;28;20061;-67
2022/12/12 13:47:17;;;;;;;26.30;14.00;;;;;;;1.77;57.10;99484.75;10437572;28;20059;-67
2022/12/12 13:52:22;;;;;;;25.23;14.25;;;;;;;1.61;57.74;99479.22;10433694;28;20135;-67
2022/12/12 13:57:29;;;;;;;22.13;13.57;;;;;;;1.50;58.46;99486.47;10432023;28;20128;-65
2022/12/12 14:02:43;;;;;;;25.27;13.07;;;;;;;1.40;58.48;99477.28;10426794;28;20079;-66
2022/12/12 14:07:56;;;;;;;22.95;13.23;;;;;;;1.39;58.28;99478.19;10440478;28;20086;-66
2022/12/12 14:13:20;;;;;;;21.15;12.50;;;;;;;1.12;58.22;99477.25;10462608;28;20975;-66
2022/12/12 14:18:37;;;;;;;21.73;12.60;;;;;;;1.11;58.92;99483.31;10429386;28;20044;-66
2022/12/12 14:23:43;;;;;;;20.05;12.27;;;;;;;1.05;58.63;99483.50;10430172;28;20048;-65
2022/12/12 14:28:45;;;;;;;19.88;12.15;;;;;;;0.92;58.76;99479.56;10429682;28;20053;-64
2022/12/12 14:34:00;;;;;;;22.55;12.65;;;;;;;0.92;58.72;99471.84;10431144;28;20233;-65
2022/12/12 14:39:27;;;;;;;19.55;12.45;;;;;;;0.72;58.66;99474.13;10431000;28;20656;-65
2022/12/12 14:44:29;;;;;;;23.75;13.32;;;;;;;0.81;59.11;99484.16;10427921;28;20048;-65
2022/12/12 14:49:39;;;;;;;25.10;13.82;;;;;;;0.80;59.24;99497.94;10433254;28;20304;-66
2022/12/12 14:54:41;;;;;;;29.52;15.55;;;;;;;0.72;59.25;99483.56;10428580;28;20075;-65
2022/12/12 14:59:43;;;;;;;27.88;14.88;;;;;;;0.73;59.55;99490.41;10429241;28;20984;-66
2022/12/12 15:04:50;;;;;;;24.67;14.80;;;;;;;0.69;59.83;99494.78;10428906;28;20052;-65
2022/12/12 15:09:52;;;;;;;23.55;13.85;;;;;;;0.63;60.08;99509.56;10433611;28;20041;-65
2022/12/12 15:14:56;;;;;;;25.55;14.75;;;;;;;0.52;60.33;99504.69;10429202;28;20059;-65
2022/12/12 15:20:01;;;;;;;24.70;14.52;;;;;;;0.58;60.38;99509.69;10427657;28;20056;-66
2022/12/12 15:25:18;;;;;;;28.05;15.35;;;;;;;0.59;60.47;99513.09;10428887;28;20074;-66
2022/12/12 15:30:38;;;;;;;31.13;16.30;;;;;;;0.60;60.56;99515.63;10428854;28;20049;-66
2022/12/12 15:35:51;;;;;;;29.52;16.35;;;;;;;0.58;60.85;99516.53;10423361;28;20069;-67
2022/12/12 15:41:03;;;;;;;27.42;16.10;;;;;;;0.49;60.51;99517.63;10427047;28;20048;-67
2022/12/12 15:46:14;;;;;;;30.40;16.85;;;;;;;0.22;60.48;99513.19;10426909;28;20566;-67
2022/12/12 15:51:18;;;;;;;31.20;16.60;;;;;;;-0.09;61.02;99504.50;10427323;28;20051;-67
2022/12/12 15:56:28;;;;;;;33.50;18.02;;;;;;;-0.41;61.54;99518.94;10425385;28;20049;-65
2022/12/12 16:01:30;;;;;;;34.58;19.35;;;;;;;-0.55;61.94;99526.09;10425056;28;20294;-68
2022/12/12 16:06:39;;;;;;;33.10;17.50;;;;;;;-0.62;62.14;99528.84;10426947;28;20055;-64
2022/12/12 16:11:50;;;;;;;32.10;18.85;;;;;;;-0.66;62.28;99535.78;10425508;28;20129;-65
2022/12/12 16:16:58;;;;;;;38.03;17.73;;;;;;;-0.71;62.53;99536.72;10421835;28;20053;-67
2022/12/12 16:22:06;;;;;;;33.80;19.17;;;;;;;-0.77;62.79;99542.84;10424759;28;20064;-67
2022/12/12 16:27:08;;;;;;;33.47;19.08;;;;;;;-0.80;63.03;99542.88;10427229;28;20947;-61
2022/12/12 16:32:16;;;;;;;35.45;19.17;;;;;;;-0.85;63.25;99549.84;10424865;28;20505;-61
2022/12/12 16:37:17;;;;;;;29.48;17.17;;;;;;;-0.90;63.24;99550.81;10427900;28;20056;-61
2022/12/12 16:42:20;;;;;;;30.50;17.30;;;;;;;-0.96;63.61;99546.63;10427080;28;20057;-59
2022/12/12 16:47:23;;;;;;;28.42;17.08;;;;;;;-1.01;63.49;99540.75;10435560;28;20100;-60
2022/12/12 16:52:24;;;;;;;32.72;18.92;;;;;;;-1.15;63.38;99540.19;10428354;28;20052;-61
2022/12/12 16:57:26;;;;;;;36.05;19.40;;;;;;;-1.23;63.65;99544.59;10427972;28;20053;-61
2022/12/12 17:02:28;;;;;;;36.30;19.60;;;;;;;-1.37;64.24;99556.84;10427108;28;20045;-61
2022/12/12 17:07:30;;;;;;;33.63;19.67;;;;;;;-1.38;64.18;99552.56;10426751;28;20053;-61
2022/12/12 17:12:31;;;;;;;45.55;23.92;;;;;;;-1.39;64.38;99556.03;10425961;28;20520;-61
2022/12/12 17:17:33;;;;;;;43.28;24.98;;;;;;;-1.43;64.50;99562.06;10435705;28;20048;-60
2022/12/12 17:22:35;;;;;;;44.72;25.75;;;;;;;-1.52;64.95;99565.63;10417276;28;20056;-60
2022/12/12 17:27:36;;;;;;;49.35;25.60;;;;;;;-1.63;64.74;99566.66;10431102;28;20060;-59
2022/12/12 17:32:39;;;;;;;42.15;22.63;;;;;;;-1.65;64.61;99581.22;10429406;28;20393;-60
2022/12/12 17:37:41;;;;;;;34.17;19.85;;;;;;;-1.71;64.75;99578.75;10425701;28;20040;-60
2022/12/12 17:42:43;;;;;;;37.75;21.40;;;;;;;-1.70;64.93;99575.34;10424585;28;20500;-60
2022/12/12 17:47:44;;;;;;;43.10;23.10;;;;;;;-1.69;65.04;99572.75;10423641;28;20405;-59
2022/12/12 17:52:46;;;;;;;42.13;23.67;;;;;;;-1.73;64.71;99575.38;10428350;28;20117;-59
2022/12/12 17:57:48;;;;;;;44.40;23.27;;;;;;;-1.92;64.80;99566.31;10450007;28;20421;-59
2022/12/12 18:02:49;;;;;;;44.03;23.05;;;;;;;-2.07;64.99;99565.66;10431503;28;20049;-59
2022/12/12 18:07:51;;;;;;;43.35;21.55;;;;;;;-2.15;65.41;99571.75;10437440;28;20073;-60
2022/12/12 18:12:53;;;;;;;46.35;23.60;;;;;;;-2.26;65.64;99564.22;10432102;28;20554;-59
2022/12/12 18:17:55;;;;;;;43.50;22.30;;;;;;;-2.21;65.74;99561.63;10431806;28;20225;-59
2022/12/12 18:22:56;;;;;;;47.42;26.10;;;;;;;-2.34;65.74;99555.81;10431433;28;20519;-59
2022/12/12 18:27:58;;;;;;;50.10;26.17;;;;;;;-2.43;66.03;99552.53;10428422;28;20452;-59
2022/12/12 18:33:00;;;;;;;45.80;25.98;;;;;;;-2.35;65.98;99558.41;10433640;28;20053;-59
2022/12/12 18:38:03;;;;;;;49.38;26.98;;;;;;;-2.28;65.91;99571.09;10428685;28;20132;-59
2022/12/12 18:43:05;;;;;;;48.95;26.88;;;;;;;-2.24;65.99;99562.50;10432671;28;20440;-59
2022/12/12 18:48:07;;;;;;;43.03;23.27;;;;;;;-2.19;66.15;99570.97;10447409;28;20060;-59
2022/12/12 18:53:10;;;;;;;39.47;22.42;;;;;;;-2.13;65.85;99575.16;10431478;28;20052;-60
2022/12/12 18:58:12;;;;;;;46.72;23.88;;;;;;;-2.21;65.54;99572.72;10433571;28;20447;-59
2022/12/12 19:03:14;;;;;;;44.33;23.38;;;;;;;-2.31;65.92;99566.03;10429917;28;20509;-60
2022/12/12 19:08:16;;;;;;;43.78;22.45;;;;;;;-2.28;65.92;99573.66;10433740;28;20055;-59
2022/12/12 19:13:17;;;;;;;44.78;23.33;;;;;;;-2.22;65.92;99585.50;10435203;28;20049;-59
2022/12/12 19:18:20;;;;;;;47.03;25.65;;;;;;;-2.08;65.87;99587.03;10428331;28;20057;-59
2022/12/12 19:23:23;;;;;;;54.00;28.45;;;;;;;-1.99;65.23;99586.03;10435648;28;20463;-59
2022/12/12 19:28:25;;;;;;;50.35;28.27;;;;;;;-1.97;65.58;99579.19;10430643;28;20063;-59
2022/12/12 19:33:27;;;;;;;39.92;23.17;;;;;;;-1.94;65.13;99580.84;10427115;28;20041;-59
2022/12/12 19:38:29;;;;;;;41.33;22.05;;;;;;;-1.83;65.33;99573.84;10431608;28;20355;-59
2022/12/12 19:43:31;;;;;;;39.65;22.20;;;;;;;-1.67;65.02;99567.59;10428303;28;20048;-60
2022/12/12 19:48:35;;;;;;;49.30;23.17;;;;;;;-1.78;64.98;99567.78;10427959;28;20137;-59
2022/12/12 19:53:39;;;;;;;45.28;22.92;;;;;;;-1.65;64.97;99576.09;10428797;28;20053;-59
2022/12/12 19:58:42;;;;;;;47.05;25.27;;;;;;;-1.62;65.01;99578.63;10434558;28;20049;-59
2022/12/12 20:03:56;;;;;;;42.85;23.27;;;;;;;-1.52;64.79;99578.47;10443093;28;20047;-59
2022/12/12 20:08:58;;;;;;;38.50;21.95;;;;;;;-1.38;64.73;99567.94;10431613;28;20044;-59
2022/12/12 20:14:00;;;;;;;46.10;23.52;;;;;;;-1.28;64.46;99570.34;10426361;28;20532;-59
2022/12/12 20:19:02;;;;;;;45.20;24.30;;;;;;;-1.24;64.31;99571.13;10438954;28;20521;-59
2022/12/12 20:24:04;;;;;;;46.60;25.75;;;;;;;-1.38;64.13;99562.81;10427420;28;20405;-59
2022/12/12 20:29:07;;;;;;;44.78;25.10;;;;;;;-1.53;64.37;99569.06;10427691;28;20053;-59
2022/12/12 20:34:10;;;;;;;38.42;23.05;;;;;;;-1.44;64.47;99562.94;10436566;28;20056;-60
2022/12/12 20:39:20;;;;;;;41.53;23.88;;;;;;;-1.45;64.41;99563.81;10427909;28;20045;-59
2022/12/12 20:44:24;;;;;;;42.60;23.10;;;;;;;-1.64;64.11;99565.00;10430935;28;20523;-59
2022/12/12 20:49:28;;;;;;;42.90;22.30;;;;;;;-1.80;64.49;99568.69;10427892;28;20537;-59
2022/12/12 20:54:29;;;;;;;44.05;24.30;;;;;;;-2.00;64.63;99574.13;10425443;28;20052;-59
2022/12/12 20:59:31;;;;;;;41.22;23.02;;;;;;;-2.10;64.88;99585.34;10437965;28;20045;-59
2022/12/12 21:04:34;;;;;;;49.63;24.75;;;;;;;-2.37;64.81;99575.50;10425176;28;20625;-59
2022/12/12 21:09:35;;;;;;;48.90;25.48;;;;;;;-2.64;65.31;99573.28;10428122;28;20052;-59
2022/12/12 21:14:37;;;;;;;50.38;23.88;;;;;;;-2.63;65.66;99572.44;10473657;28;20427;-59
2022/12/12 21:19:39;;;;;;;42.13;23.00;;;;;;;-2.64;65.51;99580.97;10431688;28;20185;-59
2022/12/12 21:24:40;;;;;;;47.20;24.00;;;;;;;-2.67;65.41;99575.91;10431375;28;20041;-59
2022/12/12 21:29:42;;;;;;;47.70;25.75;;;;;;;-2.78;65.48;99577.72;10434066;28;20068;-59
2022/12/12 21:34:44;;;;;;;48.40;24.15;;;;;;;-2.81;65.72;99582.91;10442846;28;20080;-59
2022/12/12 21:39:46;;;;;;;54.00;23.90;;;;;;;-2.89;65.75;99583.81;10433920;28;20060;-59
2022/12/12 21:44:47;;;;;;;39.33;21.90;;;;;;;-2.91;65.81;99589.81;10432615;28;20417;-59
2022/12/12 21:49:49;;;;;;;57.92;25.25;;;;;;;-2.99;65.61;99587.34;10439531;28;20044;-58
2022/12/12 21:54:50;;;;;;;42.63;22.08;;;;;;;-3.05;65.91;99581.44;10430640;28;20053;-60
2022/12/12 21:59:52;;;;;;;46.67;24.23;;;;;;;-3.02;65.77;99581.41;10434228;28;20056;-59
2022/12/12 22:04:53;;;;;;;45.15;22.42;;;;;;;-2.95;65.83;99580.47;10442825;28;20060;-59
2022/12/12 22:09:55;;;;;;;44.20;22.15;;;;;;;-2.86;65.66;99568.44;10432942;28;20053;-59
2022/12/12 22:15:10;;;;;;;38.75;21.13;;;;;;;-2.77;65.65;99572.59;10438786;28;20048;-59
2022/12/12 22:20:12;;;;;;;41.38;21.77;;;;;;;-2.72;65.02;99568.28;10436801;28;20064;-59
2022/12/12 22:25:14;;;;;;;42.58;21.92;;;;;;;-2.94;65.40;99572.78;10434377;28;20402;-59
2022/12/12 22:30:16;;;;;;;42.20;21.83;;;;;;;-2.92;65.59;99578.72;10432912;28;20067;-59
2022/12/12 22:35:18;;;;;;;44.78;23.25;;;;;;;-2.87;65.49;99578.66;10430608;28;20408;-59
2022/12/12 22:40:19;;;;;;;45.92;23.85;;;;;;;-2.91;65.45;99577.88;10433781;28;20048;-59
2022/12/12 22:45:21;;;;;;;59.17;27.40;;;;;;;-3.00;65.46;99575.41;10439221;28;20048;-59
2022/12/12 22:50:23;;;;;;;60.88;29.38;;;;;;;-3.13;66.04;99575.56;10441772;28;20400;-59
2022/12/12 22:55:24;;;;;;;43.15;23.23;;;;;;;-3.06;66.12;99572.91;10431748;28;20053;-59
2022/12/12 23:00:26;;;;;;;59.40;29.48;;;;;;;-2.93;65.96;99576.19;10431742;28;20057;-59
2022/12/12 23:05:28;;;;;;;64.07;31.08;;;;;;;-2.79;65.87;99566.63;10432346;28;20049;-59
2022/12/12 23:10:30;;;;;;;59.38;29.88;;;;;;;-2.83;65.84;99570.09;10431137;28;20037;-59
2022/12/12 23:15:36;;;;;;;64.03;31.67;;;;;;;-2.76;65.87;99555.53;10438943;28;20049;-59
2022/12/12 23:20:37;;;;;;;60.90;31.48;;;;;;;-2.70;65.80;99553.75;10433877;28;20049;-59
2022/12/12 23:25:39;;;;;;;61.72;31.98;;;;;;;-2.70;65.58;99560.56;10429795;28;20428;-59
2022/12/12 23:30:41;;;;;;;63.30;32.13;;;;;;;-3.02;65.76;99558.41;10440839;28;20520;-59
2022/12/12 23:35:47;;;;;;;61.67;33.08;;;;;;;-2.90;65.60;99561.63;10436733;28;20060;-59
2022/12/12 23:40:49;;;;;;;59.65;30.70;;;;;;;-2.97;65.59;99551.50;10434515;28;20053;-59
2022/12/12 23:45:51;;;;;;;63.63;30.63;;;;;;;-3.11;65.71;99556.78;10430624;28;20056;-60
2022/12/12 23:50:52;;;;;;;60.92;30.17;;;;;;;-3.16;66.16;99555.97;10428888;28;20548;-59